sensor_id;sensor_type;location;lat;lon;timestamp;P1;durP1;ratioP1;P2;durP2;ratioP2
23676;SDS011;31493;49.058;12.190;2023-01-15T00:01:57;3.03;;;1.60;;
23676;SDS011;31493;49.058;12.190;2023-01-15T00:04:25;6.20;;;1.98;;
23676;SDS011;31493;49.058;12.190;2023-01-15T00:06:52;2.72;;;1.60;;
23676;SDS011;31493;49.058;12.190;2023-01-15T00:09:19;3.72;;;1.52;;
23676;SDS011;31493;49.058;12.190;2023-01-15T00:11:46;3.38;;;1.88;;
23676;SDS011;31493;49.058;12.190;2023-01-15T00:14:13;2.92;;;1.65;;
23676;SDS011;31493;49.058;12.190;2023-01-15T00:16:40;4.07;;;2.10;;
23676;SDS011;31493;49.058;12.190;2023-01-15T00:19:08;3.70;;;1.90;;
23676;SDS011;31493;49.058;12.190;2023-01-15T00:21:38;2.72;;;1.80;;
23676;SDS011;31493;49.058;12.190;2023-01-15T00:24:05;3.38;;;1.67;;
23676;SDS011;31493;49.058;12.190;2023-01-15T00:26:49;2.83;;;1.80;;
23676;SDS011;31493;49.058;12.190;2023-01-15T00:29:34;2.50;;;1.58;;
23676;SDS011;31493;49.058;12.190;2023-01-15T00:32:02;4.85;;;2.00;;
23676;SDS011;31493;49.058;12.190;2023-01-15T00:34:30;4.75;;;2.00;;
23676;SDS011;31493;49.058;12.190;2023-01-15T00:36:59;4.43;;;1.65;;
23676;SDS011;31493;49.058;12.190;2023-01-15T00:39:27;3.35;;;1.90;;
23676;SDS011;31493;49.058;12.190;2023-01-15T00:41:54;5.25;;;1.95;;
23676;SDS011;31493;49.058;12.190;2023-01-15T00:44:21;3.03;;;1.83;;
23676;SDS011;31493;49.058;12.190;2023-01-15T00:46:48;5.43;;;2.38;;
23676;SDS011;31493;49.058;12.190;2023-01-15T00:49:15;6.57;;;2.63;;
23676;SDS011;31493;49.058;12.190;2023-01-15T00:51:42;3.17;;;2.08;;
23676;SDS011;31493;49.058;12.190;2023-01-15T00:54:11;3.30;;;2.00;;
23676;SDS011;31493;49.058;12.190;2023-01-15T00:56:38;5.05;;;2.33;;
23676;SDS011;31493;49.058;12.190;2023-01-15T00:59:05;4.05;;;1.92;;
23676;SDS011;31493;49.058;12.190;2023-01-15T01:01:32;2.72;;;2.05;;
23676;SDS011;31493;49.058;12.190;2023-01-15T01:03:59;3.67;;;1.73;;
23676;SDS011;31493;49.058;12.190;2023-01-15T01:06:26;3.90;;;2.20;;
23676;SDS011;31493;49.058;12.190;2023-01-15T01:08:54;4.35;;;1.98;;
23676;SDS011;31493;49.058;12.190;2023-01-15T01:11:23;4.03;;;2.03;;
23676;SDS011;31493;49.058;12.190;2023-01-15T01:13:53;5.03;;;1.90;;
23676;SDS011;31493;49.058;12.190;2023-01-15T01:16:22;5.20;;;1.80;;
23676;SDS011;31493;49.058;12.190;2023-01-15T01:18:50;4.30;;;2.15;;
23676;SDS011;31493;49.058;12.190;2023-01-15T01:21:17;4.45;;;1.88;;
23676;SDS011;31493;49.058;12.190;2023-01-15T01:23:45;3.08;;;1.70;;
23676;SDS011;31493;49.058;12.190;2023-01-15T01:26:12;3.70;;;1.98;;
23676;SDS011;31493;49.058;12.190;2023-01-15T01:28:40;3.88;;;2.00;;
23676;SDS011;31493;49.058;12.190;2023-01-15T01:31:07;5.95;;;1.95;;
23676;SDS011;31493;49.058;12.190;2023-01-15T01:33:35;2.90;;;1.55;;
23676;SDS011;31493;49.058;12.190;2023-01-15T01:36:02;2.65;;;1.75;;
23676;SDS011;31493;49.058;12.190;2023-01-15T01:38:30;5.50;;;1.95;;
23676;SDS011;31493;49.058;12.190;2023-01-15T01:40:57;2.75;;;1.80;;
23676;SDS011;31493;49.058;12.190;2023-01-15T01:43:24;5.38;;;2.15;;
23676;SDS011;31493;49.058;12.190;2023-01-15T01:45:54;5.18;;;1.95;;
23676;SDS011;31493;49.058;12.190;2023-01-15T01:48:23;3.90;;;1.90;;
23676;SDS011;31493;49.058;12.190;2023-01-15T01:50:54;3.97;;;1.90;;
23676;SDS011;31493;49.058;12.190;2023-01-15T01:53:27;4.30;;;2.00;;
23676;SDS011;31493;49.058;12.190;2023-01-15T01:55:56;4.90;;;1.90;;
23676;SDS011;31493;49.058;12.190;2023-01-15T01:58:25;4.57;;;1.77;;
23676;SDS011;31493;49.058;12.190;2023-01-15T02:00:57;3.13;;;1.70;;
23676;SDS011;31493;49.058;12.190;2023-01-15T02:03:26;4.47;;;1.80;;
23676;SDS011;31493;49.058;12.190;2023-01-15T02:05:58;6.18;;;2.03;;
23676;SDS011;31493;49.058;12.190;2023-01-15T02:08:28;3.35;;;1.63;;
23676;SDS011;31493;49.058;12.190;2023-01-15T02:10:57;3.42;;;1.92;;
23676;SDS011;31493;49.058;12.190;2023-01-15T02:13:25;3.28;;;1.80;;
23676;SDS011;31493;49.058;12.190;2023-01-15T02:16:02;2.78;;;1.95;;
23676;SDS011;31493;49.058;12.190;2023-01-15T02:18:39;3.58;;;1.75;;
23676;SDS011;31493;49.058;12.190;2023-01-15T02:21:14;3.17;;;1.80;;
23676;SDS011;31493;49.058;12.190;2023-01-15T02:24:04;2.90;;;1.85;;
23676;SDS011;31493;49.058;12.190;2023-01-15T02:26:40;3.50;;;2.03;;
23676;SDS011;31493;49.058;12.190;2023-01-15T02:29:38;3.35;;;1.95;;
23676;SDS011;31493;49.058;12.190;2023-01-15T02:32:12;3.90;;;2.00;;
23676;SDS011;31493;49.058;12.190;2023-01-15T02:34:45;5.30;;;2.25;;
23676;SDS011;31493;49.058;12.190;2023-01-15T02:37:19;2.67;;;1.92;;
23676;SDS011;31493;49.058;12.190;2023-01-15T02:39:50;6.97;;;2.00;;
23676;SDS011;31493;49.058;12.190;2023-01-15T02:42:19;2.60;;;1.77;;
23676;SDS011;31493;49.058;12.190;2023-01-15T02:44:50;2.45;;;1.73;;
23676;SDS011;31493;49.058;12.190;2023-01-15T02:47:21;3.20;;;1.60;;
23676;SDS011;31493;49.058;12.190;2023-01-15T02:49:52;5.47;;;2.30;;
23676;SDS011;31493;49.058;12.190;2023-01-15T02:52:23;2.97;;;1.67;;
23676;SDS011;31493;49.058;12.190;2023-01-15T02:54:53;3.35;;;1.50;;
23676;SDS011;31493;49.058;12.190;2023-01-15T02:57:28;3.45;;;1.92;;
23676;SDS011;31493;49.058;12.190;2023-01-15T02:59:59;7.80;;;2.15;;
23676;SDS011;31493;49.058;12.190;2023-01-15T03:02:32;3.30;;;1.73;;
23676;SDS011;31493;49.058;12.190;2023-01-15T03:05:04;4.05;;;1.98;;
23676;SDS011;31493;49.058;12.190;2023-01-15T03:07:35;4.32;;;2.03;;
23676;SDS011;31493;49.058;12.190;2023-01-15T03:10:06;2.38;;;1.75;;
23676;SDS011;31493;49.058;12.190;2023-01-15T03:12:36;6.03;;;1.90;;
23676;SDS011;31493;49.058;12.190;2023-01-15T03:15:23;3.67;;;1.80;;
23676;SDS011;31493;49.058;12.190;2023-01-15T03:18:07;2.30;;;1.60;;
23676;SDS011;31493;49.058;12.190;2023-01-15T03:20:38;2.88;;;2.10;;
23676;SDS011;31493;49.058;12.190;2023-01-15T03:23:10;5.25;;;2.30;;
23676;SDS011;31493;49.058;12.190;2023-01-15T03:25:41;2.97;;;1.92;;
23676;SDS011;31493;49.058;12.190;2023-01-15T03:28:14;4.93;;;1.90;;
23676;SDS011;31493;49.058;12.190;2023-01-15T03:30:46;4.68;;;1.83;;
23676;SDS011;31493;49.058;12.190;2023-01-15T03:33:13;5.60;;;2.15;;
23676;SDS011;31493;49.058;12.190;2023-01-15T03:35:45;3.10;;;1.90;;
23676;SDS011;31493;49.058;12.190;2023-01-15T03:38:15;3.78;;;2.22;;
23676;SDS011;31493;49.058;12.190;2023-01-15T03:40:47;3.65;;;2.03;;
23676;SDS011;31493;49.058;12.190;2023-01-15T03:43:21;2.15;;;1.60;;
23676;SDS011;31493;49.058;12.190;2023-01-15T03:46:08;4.82;;;2.38;;
23676;SDS011;31493;49.058;12.190;2023-01-15T03:48:48;3.75;;;1.98;;
23676;SDS011;31493;49.058;12.190;2023-01-15T03:51:22;4.80;;;2.10;;
23676;SDS011;31493;49.058;12.190;2023-01-15T03:53:54;3.38;;;1.90;;
23676;SDS011;31493;49.058;12.190;2023-01-15T03:56:23;7.47;;;2.47;;
23676;SDS011;31493;49.058;12.190;2023-01-15T03:59:01;8.45;;;2.28;;
23676;SDS011;31493;49.058;12.190;2023-01-15T04:01:32;2.17;;;1.45;;
23676;SDS011;31493;49.058;12.190;2023-01-15T04:04:03;4.00;;;2.50;;
23676;SDS011;31493;49.058;12.190;2023-01-15T04:06:32;4.40;;;2.35;;
23676;SDS011;31493;49.058;12.190;2023-01-15T04:09:02;3.75;;;2.13;;
23676;SDS011;31493;49.058;12.190;2023-01-15T04:11:32;2.45;;;1.60;;
23676;SDS011;31493;49.058;12.190;2023-01-15T04:14:00;3.60;;;2.10;;
23676;SDS011;31493;49.058;12.190;2023-01-15T04:16:28;4.00;;;1.70;;
23676;SDS011;31493;49.058;12.190;2023-01-15T04:18:56;4.70;;;2.25;;
23676;SDS011;31493;49.058;12.190;2023-01-15T04:21:24;4.65;;;1.92;;
23676;SDS011;31493;49.058;12.190;2023-01-15T04:23:52;3.38;;;2.03;;
23676;SDS011;31493;49.058;12.190;2023-01-15T04:26:19;3.80;;;2.50;;
23676;SDS011;31493;49.058;12.190;2023-01-15T04:28:46;6.25;;;2.60;;
23676;SDS011;31493;49.058;12.190;2023-01-15T04:31:15;3.83;;;2.50;;
23676;SDS011;31493;49.058;12.190;2023-01-15T04:33:42;5.97;;;2.53;;
23676;SDS011;31493;49.058;12.190;2023-01-15T04:36:09;11.43;;;2.45;;
23676;SDS011;31493;49.058;12.190;2023-01-15T04:38:36;5.72;;;2.10;;
23676;SDS011;31493;49.058;12.190;2023-01-15T04:41:04;4.97;;;2.25;;
23676;SDS011;31493;49.058;12.190;2023-01-15T04:43:48;4.35;;;2.55;;
23676;SDS011;31493;49.058;12.190;2023-01-15T04:46:36;3.25;;;1.90;;
23676;SDS011;31493;49.058;12.190;2023-01-15T04:49:05;4.15;;;2.15;;
23676;SDS011;31493;49.058;12.190;2023-01-15T04:51:34;5.00;;;2.20;;
23676;SDS011;31493;49.058;12.190;2023-01-15T04:54:02;4.20;;;2.10;;
23676;SDS011;31493;49.058;12.190;2023-01-15T04:56:30;4.22;;;1.60;;
23676;SDS011;31493;49.058;12.190;2023-01-15T04:58:58;2.85;;;1.90;;
23676;SDS011;31493;49.058;12.190;2023-01-15T05:01:26;5.75;;;1.98;;
23676;SDS011;31493;49.058;12.190;2023-01-15T05:03:54;4.07;;;2.17;;
23676;SDS011;31493;49.058;12.190;2023-01-15T05:06:22;4.13;;;1.98;;
23676;SDS011;31493;49.058;12.190;2023-01-15T05:08:51;9.43;;;2.10;;
23676;SDS011;31493;49.058;12.190;2023-01-15T05:11:18;5.28;;;2.30;;
23676;SDS011;31493;49.058;12.190;2023-01-15T05:13:45;3.78;;;1.30;;
23676;SDS011;31493;49.058;12.190;2023-01-15T05:16:12;4.88;;;2.05;;
23676;SDS011;31493;49.058;12.190;2023-01-15T05:21:13;3.92;;;2.13;;
23676;SDS011;31493;49.058;12.190;2023-01-15T05:23:42;3.25;;;1.65;;
23676;SDS011;31493;49.058;12.190;2023-01-15T05:26:09;6.20;;;2.03;;
23676;SDS011;31493;49.058;12.190;2023-01-15T05:28:36;4.43;;;1.75;;
23676;SDS011;31493;49.058;12.190;2023-01-15T05:31:06;5.95;;;2.17;;
23676;SDS011;31493;49.058;12.190;2023-01-15T05:33:35;3.92;;;2.00;;
23676;SDS011;31493;49.058;12.190;2023-01-15T05:36:02;5.38;;;2.40;;
23676;SDS011;31493;49.058;12.190;2023-01-15T05:38:31;3.88;;;2.10;;
23676;SDS011;31493;49.058;12.190;2023-01-15T05:40:58;3.17;;;1.88;;
23676;SDS011;31493;49.058;12.190;2023-01-15T05:43:28;5.13;;;2.13;;
23676;SDS011;31493;49.058;12.190;2023-01-15T05:45:59;2.95;;;1.55;;
23676;SDS011;31493;49.058;12.190;2023-01-15T05:48:27;4.22;;;1.70;;
23676;SDS011;31493;49.058;12.190;2023-01-15T05:50:54;5.38;;;2.22;;
23676;SDS011;31493;49.058;12.190;2023-01-15T05:53:21;2.72;;;1.90;;
23676;SDS011;31493;49.058;12.190;2023-01-15T05:55:49;4.13;;;1.73;;
23676;SDS011;31493;49.058;12.190;2023-01-15T05:58:16;3.28;;;2.00;;
23676;SDS011;31493;49.058;12.190;2023-01-15T06:00:43;5.43;;;1.67;;
23676;SDS011;31493;49.058;12.190;2023-01-15T06:03:10;2.42;;;1.23;;
23676;SDS011;31493;49.058;12.190;2023-01-15T06:05:37;3.35;;;1.98;;
23676;SDS011;31493;49.058;12.190;2023-01-15T06:08:04;2.97;;;1.48;;
23676;SDS011;31493;49.058;12.190;2023-01-15T06:10:31;3.83;;;1.75;;
23676;SDS011;31493;49.058;12.190;2023-01-15T06:12:59;5.43;;;2.00;;
23676;SDS011;31493;49.058;12.190;2023-01-15T06:15:26;4.60;;;1.60;;
23676;SDS011;31493;49.058;12.190;2023-01-15T06:17:53;2.55;;;1.63;;
23676;SDS011;31493;49.058;12.190;2023-01-15T06:20:20;2.65;;;1.70;;
23676;SDS011;31493;49.058;12.190;2023-01-15T06:22:47;2.25;;;1.17;;
23676;SDS011;31493;49.058;12.190;2023-01-15T06:25:14;2.72;;;1.60;;
23676;SDS011;31493;49.058;12.190;2023-01-15T06:27:41;4.20;;;1.80;;
23676;SDS011;31493;49.058;12.190;2023-01-15T06:30:11;4.80;;;1.90;;
23676;SDS011;31493;49.058;12.190;2023-01-15T06:32:38;7.18;;;1.80;;
23676;SDS011;31493;49.058;12.190;2023-01-15T06:35:05;3.35;;;1.60;;
23676;SDS011;31493;49.058;12.190;2023-01-15T06:37:33;3.50;;;1.90;;
23676;SDS011;31493;49.058;12.190;2023-01-15T06:40:00;2.33;;;1.80;;
23676;SDS011;31493;49.058;12.190;2023-01-15T06:42:27;2.45;;;1.75;;
23676;SDS011;31493;49.058;12.190;2023-01-15T06:45:13;3.10;;;1.55;;
23676;SDS011;31493;49.058;12.190;2023-01-15T06:48:09;3.15;;;1.90;;
23676;SDS011;31493;49.058;12.190;2023-01-15T06:50:36;2.72;;;1.65;;
23676;SDS011;31493;49.058;12.190;2023-01-15T06:53:03;2.50;;;1.23;;
23676;SDS011;31493;49.058;12.190;2023-01-15T06:55:30;4.22;;;2.05;;
23676;SDS011;31493;49.058;12.190;2023-01-15T06:57:57;4.95;;;1.58;;
23676;SDS011;31493;49.058;12.190;2023-01-15T07:00:25;4.95;;;1.80;;
23676;SDS011;31493;49.058;12.190;2023-01-15T07:02:52;4.53;;;1.88;;
23676;SDS011;31493;49.058;12.190;2023-01-15T07:05:19;3.40;;;1.73;;
23676;SDS011;31493;49.058;12.190;2023-01-15T07:07:46;4.00;;;1.40;;
23676;SDS011;31493;49.058;12.190;2023-01-15T07:10:13;1.73;;;1.40;;
23676;SDS011;31493;49.058;12.190;2023-01-15T07:12:40;3.22;;;1.13;;
23676;SDS011;31493;49.058;12.190;2023-01-15T07:15:07;2.15;;;1.17;;
23676;SDS011;31493;49.058;12.190;2023-01-15T07:17:37;4.60;;;1.60;;
23676;SDS011;31493;49.058;12.190;2023-01-15T07:20:04;2.25;;;1.50;;
23676;SDS011;31493;49.058;12.190;2023-01-15T07:22:32;2.50;;;1.52;;
23676;SDS011;31493;49.058;12.190;2023-01-15T07:24:59;2.60;;;1.30;;
23676;SDS011;31493;49.058;12.190;2023-01-15T07:27:29;2.45;;;1.25;;
23676;SDS011;31493;49.058;12.190;2023-01-15T07:29:56;2.50;;;1.40;;
23676;SDS011;31493;49.058;12.190;2023-01-15T07:32:23;2.53;;;1.63;;
23676;SDS011;31493;49.058;12.190;2023-01-15T07:34:52;3.35;;;1.60;;
23676;SDS011;31493;49.058;12.190;2023-01-15T07:37:18;2.65;;;1.45;;
23676;SDS011;31493;49.058;12.190;2023-01-15T07:39:45;3.35;;;1.40;;
23676;SDS011;31493;49.058;12.190;2023-01-15T07:42:12;2.17;;;1.38;;
23676;SDS011;31493;49.058;12.190;2023-01-15T07:44:57;4.40;;;1.10;;
23676;SDS011;31493;49.058;12.190;2023-01-15T07:47:44;2.63;;;1.67;;
23676;SDS011;31493;49.058;12.190;2023-01-15T07:50:30;2.70;;;1.42;;
23676;SDS011;31493;49.058;12.190;2023-01-15T07:52:57;1.50;;;0.90;;
23676;SDS011;31493;49.058;12.190;2023-01-15T07:55:24;2.63;;;1.50;;
23676;SDS011;31493;49.058;12.190;2023-01-15T07:57:51;3.15;;;1.20;;
23676;SDS011;31493;49.058;12.190;2023-01-15T08:00:22;4.63;;;1.75;;
23676;SDS011;31493;49.058;12.190;2023-01-15T08:02:50;3.20;;;1.63;;
23676;SDS011;31493;49.058;12.190;2023-01-15T08:05:18;1.45;;;1.08;;
23676;SDS011;31493;49.058;12.190;2023-01-15T08:07:46;2.80;;;1.45;;
23676;SDS011;31493;49.058;12.190;2023-01-15T08:10:14;1.50;;;1.02;;
23676;SDS011;31493;49.058;12.190;2023-01-15T08:12:41;3.25;;;1.50;;
23676;SDS011;31493;49.058;12.190;2023-01-15T08:15:26;2.88;;;1.30;;
23676;SDS011;31493;49.058;12.190;2023-01-15T08:17:57;2.00;;;0.98;;
23676;SDS011;31493;49.058;12.190;2023-01-15T08:20:25;1.67;;;0.80;;
23676;SDS011;31493;49.058;12.190;2023-01-15T08:22:53;2.53;;;1.40;;
23676;SDS011;31493;49.058;12.190;2023-01-15T08:25:21;1.75;;;1.25;;
23676;SDS011;31493;49.058;12.190;2023-01-15T08:27:50;1.92;;;1.33;;
23676;SDS011;31493;49.058;12.190;2023-01-15T08:30:18;3.80;;;1.98;;
23676;SDS011;31493;49.058;12.190;2023-01-15T08:32:48;2.30;;;1.27;;
23676;SDS011;31493;49.058;12.190;2023-01-15T08:35:15;1.83;;;1.00;;
23676;SDS011;31493;49.058;12.190;2023-01-15T08:37:42;1.45;;;1.00;;
23676;SDS011;31493;49.058;12.190;2023-01-15T08:40:11;3.50;;;1.48;;
23676;SDS011;31493;49.058;12.190;2023-01-15T08:42:38;2.53;;;1.27;;
23676;SDS011;31493;49.058;12.190;2023-01-15T08:45:06;1.40;;;1.00;;
23676;SDS011;31493;49.058;12.190;2023-01-15T08:47:34;3.38;;;1.15;;
23676;SDS011;31493;49.058;12.190;2023-01-15T08:50:01;1.35;;;1.10;;
23676;SDS011;31493;49.058;12.190;2023-01-15T08:52:29;1.40;;;1.00;;
23676;SDS011;31493;49.058;12.190;2023-01-15T08:54:56;1.65;;;1.10;;
23676;SDS011;31493;49.058;12.190;2023-01-15T08:57:24;1.27;;;1.00;;
23676;SDS011;31493;49.058;12.190;2023-01-15T08:59:51;1.52;;;0.90;;
23676;SDS011;31493;49.058;12.190;2023-01-15T09:02:18;1.98;;;0.90;;
23676;SDS011;31493;49.058;12.190;2023-01-15T09:04:45;1.58;;;0.93;;
23676;SDS011;31493;49.058;12.190;2023-01-15T09:07:12;1.75;;;1.10;;
23676;SDS011;31493;49.058;12.190;2023-01-15T09:09:39;2.30;;;0.80;;
23676;SDS011;31493;49.058;12.190;2023-01-15T09:12:06;1.13;;;0.93;;
23676;SDS011;31493;49.058;12.190;2023-01-15T09:14:34;1.17;;;0.90;;
23676;SDS011;31493;49.058;12.190;2023-01-15T09:17:01;1.45;;;1.20;;
23676;SDS011;31493;49.058;12.190;2023-01-15T09:19:28;1.63;;;0.85;;
23676;SDS011;31493;49.058;12.190;2023-01-15T09:21:55;1.17;;;0.80;;
23676;SDS011;31493;49.058;12.190;2023-01-15T09:24:23;1.02;;;0.63;;
23676;SDS011;31493;49.058;12.190;2023-01-15T09:26:50;1.80;;;0.82;;
23676;SDS011;31493;49.058;12.190;2023-01-15T09:29:17;1.70;;;0.93;;
23676;SDS011;31493;49.058;12.190;2023-01-15T09:31:46;7.10;;;0.82;;
23676;SDS011;31493;49.058;12.190;2023-01-15T09:34:13;4.60;;;0.80;;
23676;SDS011;31493;49.058;12.190;2023-01-15T09:36:40;3.95;;;0.82;;
23676;SDS011;31493;49.058;12.190;2023-01-15T09:39:07;2.22;;;0.98;;
23676;SDS011;31493;49.058;12.190;2023-01-15T09:41:37;7.95;;;1.48;;
23676;SDS011;31493;49.058;12.190;2023-01-15T09:44:36;1.95;;;1.13;;
23676;SDS011;31493;49.058;12.190;2023-01-15T09:47:12;2.40;;;1.08;;
23676;SDS011;31493;49.058;12.190;2023-01-15T09:49:48;1.55;;;1.15;;
23676;SDS011;31493;49.058;12.190;2023-01-15T09:52:24;4.00;;;1.15;;
23676;SDS011;31493;49.058;12.190;2023-01-15T09:55:02;1.33;;;0.65;;
23676;SDS011;31493;49.058;12.190;2023-01-15T09:57:34;1.20;;;0.80;;
23676;SDS011;31493;49.058;12.190;2023-01-15T10:00:03;2.42;;;0.40;;
23676;SDS011;31493;49.058;12.190;2023-01-15T10:02:34;1.50;;;0.57;;
23676;SDS011;31493;49.058;12.190;2023-01-15T10:05:06;0.98;;;0.65;;
23676;SDS011;31493;49.058;12.190;2023-01-15T10:07:39;0.80;;;0.50;;
23676;SDS011;31493;49.058;12.190;2023-01-15T10:10:10;1.10;;;0.50;;
23676;SDS011;31493;49.058;12.190;2023-01-15T10:12:39;0.28;;;0.28;;
23676;SDS011;31493;49.058;12.190;2023-01-15T10:15:21;0.30;;;0.20;;
23676;SDS011;31493;49.058;12.190;2023-01-15T10:17:55;0.40;;;0.30;;
23676;SDS011;31493;49.058;12.190;2023-01-15T10:20:37;0.43;;;0.32;;
23676;SDS011;31493;49.058;12.190;2023-01-15T10:23:24;0.43;;;0.38;;
23676;SDS011;31493;49.058;12.190;2023-01-15T10:26:00;1.15;;;0.50;;
23676;SDS011;31493;49.058;12.190;2023-01-15T10:28:38;0.47;;;0.40;;
23676;SDS011;31493;49.058;12.190;2023-01-15T10:31:17;0.47;;;0.40;;
23676;SDS011;31493;49.058;12.190;2023-01-15T10:33:52;0.45;;;0.40;;
23676;SDS011;31493;49.058;12.190;2023-01-15T10:36:28;0.20;;;0.20;;
23676;SDS011;31493;49.058;12.190;2023-01-15T10:39:03;0.30;;;0.30;;
23676;SDS011;31493;49.058;12.190;2023-01-15T10:41:49;0.38;;;0.30;;
23676;SDS011;31493;49.058;12.190;2023-01-15T10:44:23;0.50;;;0.40;;
23676;SDS011;31493;49.058;12.190;2023-01-15T10:47:00;0.50;;;0.50;;
23676;SDS011;31493;49.058;12.190;2023-01-15T10:49:30;0.57;;;0.20;;
23676;SDS011;31493;49.058;12.190;2023-01-15T10:51:58;0.45;;;0.38;;
23676;SDS011;31493;49.058;12.190;2023-01-15T10:54:32;0.40;;;0.32;;
23676;SDS011;31493;49.058;12.190;2023-01-15T10:57:03;0.65;;;0.43;;
23676;SDS011;31493;49.058;12.190;2023-01-15T10:59:38;0.50;;;0.30;;
23676;SDS011;31493;49.058;12.190;2023-01-15T11:02:15;0.20;;;0.20;;
23676;SDS011;31493;49.058;12.190;2023-01-15T11:04:50;0.25;;;0.25;;
23676;SDS011;31493;49.058;12.190;2023-01-15T11:07:18;1.33;;;0.20;;
23676;SDS011;31493;49.058;12.190;2023-01-15T11:09:46;0.25;;;0.20;;
23676;SDS011;31493;49.058;12.190;2023-01-15T11:12:18;0.30;;;0.20;;
23676;SDS011;31493;49.058;12.190;2023-01-15T11:15:15;0.22;;;0.22;;
23676;SDS011;31493;49.058;12.190;2023-01-15T11:18:06;0.32;;;0.32;;
23676;SDS011;31493;49.058;12.190;2023-01-15T11:20:58;0.20;;;0.20;;
23676;SDS011;31493;49.058;12.190;2023-01-15T11:23:26;0.30;;;0.30;;
23676;SDS011;31493;49.058;12.190;2023-01-15T11:25:54;0.40;;;0.40;;
23676;SDS011;31493;49.058;12.190;2023-01-15T11:28:29;0.60;;;0.30;;
23676;SDS011;31493;49.058;12.190;2023-01-15T11:30:59;0.30;;;0.30;;
23676;SDS011;31493;49.058;12.190;2023-01-15T11:33:27;0.30;;;0.30;;
23676;SDS011;31493;49.058;12.190;2023-01-15T11:35:57;0.30;;;0.30;;
23676;SDS011;31493;49.058;12.190;2023-01-15T11:38:27;0.50;;;0.32;;
23676;SDS011;31493;49.058;12.190;2023-01-15T11:43:24;0.30;;;0.28;;
23676;SDS011;31493;49.058;12.190;2023-01-15T11:46:22;0.60;;;0.40;;
23676;SDS011;31493;49.058;12.190;2023-01-15T11:49:09;0.52;;;0.30;;
23676;SDS011;31493;49.058;12.190;2023-01-15T11:51:55;0.40;;;0.40;;
23676;SDS011;31493;49.058;12.190;2023-01-15T11:54:24;0.20;;;0.20;;
23676;SDS011;31493;49.058;12.190;2023-01-15T11:56:52;0.52;;;0.40;;
23676;SDS011;31493;49.058;12.190;2023-01-15T11:59:21;0.43;;;0.40;;
23676;SDS011;31493;49.058;12.190;2023-01-15T12:01:50;0.40;;;0.35;;
23676;SDS011;31493;49.058;12.190;2023-01-15T12:04:26;0.43;;;0.30;;
23676;SDS011;31493;49.058;12.190;2023-01-15T12:06:59;0.30;;;0.30;;
23676;SDS011;31493;49.058;12.190;2023-01-15T12:09:35;2.28;;;0.40;;
23676;SDS011;31493;49.058;12.190;2023-01-15T12:12:16;0.30;;;0.30;;
23676;SDS011;31493;49.058;12.190;2023-01-15T12:15:01;0.40;;;0.40;;
23676;SDS011;31493;49.058;12.190;2023-01-15T12:20:58;0.40;;;0.40;;
23676;SDS011;31493;49.058;12.190;2023-01-15T12:23:43;0.30;;;0.30;;
23676;SDS011;31493;49.058;12.190;2023-01-15T12:26:22;0.25;;;0.25;;
23676;SDS011;31493;49.058;12.190;2023-01-15T12:28:59;0.30;;;0.30;;
23676;SDS011;31493;49.058;12.190;2023-01-15T12:31:31;0.20;;;0.20;;
23676;SDS011;31493;49.058;12.190;2023-01-15T12:34:05;1.20;;;0.30;;
23676;SDS011;31493;49.058;12.190;2023-01-15T12:36:42;0.20;;;0.20;;
23676;SDS011;31493;49.058;12.190;2023-01-15T12:39:17;0.25;;;0.20;;
23676;SDS011;31493;49.058;12.190;2023-01-15T12:41:49;0.30;;;0.30;;
23676;SDS011;31493;49.058;12.190;2023-01-15T12:44:39;0.52;;;0.30;;
23676;SDS011;31493;49.058;12.190;2023-01-15T12:47:30;0.65;;;0.30;;
23676;SDS011;31493;49.058;12.190;2023-01-15T12:50:03;0.68;;;0.30;;
23676;SDS011;31493;49.058;12.190;2023-01-15T12:52:42;1.65;;;0.40;;
23676;SDS011;31493;49.058;12.190;2023-01-15T12:55:14;0.40;;;0.30;;
23676;SDS011;31493;49.058;12.190;2023-01-15T12:57:45;0.30;;;0.30;;
23676;SDS011;31493;49.058;12.190;2023-01-15T13:00:16;0.60;;;0.40;;
23676;SDS011;31493;49.058;12.190;2023-01-15T13:02:52;0.63;;;0.30;;
23676;SDS011;31493;49.058;12.190;2023-01-15T13:05:27;0.50;;;0.40;;
23676;SDS011;31493;49.058;12.190;2023-01-15T13:07:58;0.20;;;0.20;;
23676;SDS011;31493;49.058;12.190;2023-01-15T13:10:30;0.30;;;0.30;;
23676;SDS011;31493;49.058;12.190;2023-01-15T13:13:01;1.45;;;0.40;;
23676;SDS011;31493;49.058;12.190;2023-01-15T13:15:41;2.67;;;1.05;;
23676;SDS011;31493;49.058;12.190;2023-01-15T13:18:21;2.70;;;1.58;;
23676;SDS011;31493;49.058;12.190;2023-01-15T13:20:55;0.43;;;0.35;;
23676;SDS011;31493;49.058;12.190;2023-01-15T13:23:31;0.55;;;0.35;;
23676;SDS011;31493;49.058;12.190;2023-01-15T13:26:13;1.95;;;1.23;;
23676;SDS011;31493;49.058;12.190;2023-01-15T13:28:55;0.82;;;0.60;;
23676;SDS011;31493;49.058;12.190;2023-01-15T13:31:44;0.50;;;0.45;;
23676;SDS011;31493;49.058;12.190;2023-01-15T13:34:21;4.90;;;3.70;;
23676;SDS011;31493;49.058;12.190;2023-01-15T13:36:54;16.25;;;10.75;;
23676;SDS011;31493;49.058;12.190;2023-01-15T13:39:29;6.15;;;4.25;;
23676;SDS011;31493;49.058;12.190;2023-01-15T13:42:10;1.30;;;1.17;;
23676;SDS011;31493;49.058;12.190;2023-01-15T13:47:53;0.50;;;0.40;;
23676;SDS011;31493;49.058;12.190;2023-01-15T13:50:27;1.00;;;0.70;;
23676;SDS011;31493;49.058;12.190;2023-01-15T13:53:00;1.80;;;0.90;;
23676;SDS011;31493;49.058;12.190;2023-01-15T13:55:31;0.70;;;0.50;;
23676;SDS011;31493;49.058;12.190;2023-01-15T13:58:01;0.90;;;0.50;;
23676;SDS011;31493;49.058;12.190;2023-01-15T14:00:29;2.58;;;0.50;;
23676;SDS011;31493;49.058;12.190;2023-01-15T14:02:59;0.57;;;0.50;;
23676;SDS011;31493;49.058;12.190;2023-01-15T14:05:30;0.50;;;0.50;;
23676;SDS011;31493;49.058;12.190;2023-01-15T14:08:00;0.90;;;0.50;;
23676;SDS011;31493;49.058;12.190;2023-01-15T14:10:32;0.55;;;0.40;;
23676;SDS011;31493;49.058;12.190;2023-01-15T14:13:11;0.60;;;0.50;;
23676;SDS011;31493;49.058;12.190;2023-01-15T14:15:52;0.45;;;0.32;;
23676;SDS011;31493;49.058;12.190;2023-01-15T14:18:43;1.70;;;1.30;;
23676;SDS011;31493;49.058;12.190;2023-01-15T14:21:28;0.73;;;0.47;;
23676;SDS011;31493;49.058;12.190;2023-01-15T14:27:06;0.20;;;0.20;;
23676;SDS011;31493;49.058;12.190;2023-01-15T14:29:44;0.68;;;0.40;;
23676;SDS011;31493;49.058;12.190;2023-01-15T14:32:27;0.50;;;0.40;;
23676;SDS011;31493;49.058;12.190;2023-01-15T14:35:03;0.57;;;0.40;;
23676;SDS011;31493;49.058;12.190;2023-01-15T14:37:39;0.38;;;0.38;;
23676;SDS011;31493;49.058;12.190;2023-01-15T14:40:17;0.80;;;0.50;;
23676;SDS011;31493;49.058;12.190;2023-01-15T14:42:47;0.85;;;0.73;;
23676;SDS011;31493;49.058;12.190;2023-01-15T14:45:33;1.23;;;0.90;;
23676;SDS011;31493;49.058;12.190;2023-01-15T14:48:04;3.70;;;1.10;;
23676;SDS011;31493;49.058;12.190;2023-01-15T14:50:41;1.27;;;0.52;;
23676;SDS011;31493;49.058;12.190;2023-01-15T14:53:30;2.03;;;0.43;;
23676;SDS011;31493;49.058;12.190;2023-01-15T14:56:04;0.40;;;0.40;;
23676;SDS011;31493;49.058;12.190;2023-01-15T14:58:44;0.60;;;0.50;;
23676;SDS011;31493;49.058;12.190;2023-01-15T15:01:20;0.60;;;0.35;;
23676;SDS011;31493;49.058;12.190;2023-01-15T15:03:55;1.55;;;0.45;;
23676;SDS011;31493;49.058;12.190;2023-01-15T15:06:25;0.70;;;0.40;;
23676;SDS011;31493;49.058;12.190;2023-01-15T15:08:54;0.90;;;0.40;;
23676;SDS011;31493;49.058;12.190;2023-01-15T15:11:28;0.47;;;0.40;;
23676;SDS011;31493;49.058;12.190;2023-01-15T15:14:18;0.80;;;0.50;;
23676;SDS011;31493;49.058;12.190;2023-01-15T15:16:50;0.47;;;0.38;;